Time;durP1;ratioP1;P1;durP2;ratioP2;P2;SDS_P1;SDS_P2;PMS_P1;PMS_P2;Temp;Humidity;BMP_temperature;BMP_pressure;BME280_temperature;BME280_humidity;BME280_pressure;Samples;Min_cycle;Max_cycle;Signal;HPM_P1;HPM_P2
2022/11/26 00:00:47;;;;;;;9.03;4.00;;;;;;;5.88;nan;99034.66;5014576;28;20229;-70
2022/11/26 00:03:14;;;;;;;11.30;4.97;;;;;;;5.88;nan;99032.81;5014642;28;20207;-71
2022/11/26 00:05:47;;;;;;;9.67;5.10;;;;;;;5.92;nan;99030.69;5014478;28;20202;-70
2022/11/26 00:08:21;;;;;;;12.30;5.40;;;;;;;5.85;nan;99037.63;5015422;28;20297;-71
2022/11/26 00:10:50;;;;;;;10.93;4.90;;;;;;;5.87;nan;99044.38;5013983;28;20230;-71
2022/11/26 00:13:22;;;;;;;10.13;4.80;;;;;;;5.85;nan;99038.44;5014221;28;20221;-70
2022/11/26 00:15:50;;;;;;;11.73;4.80;;;;;;;5.89;nan;99052.13;5014469;28;20213;-71
2022/11/26 00:18:18;;;;;;;11.47;5.30;;;;;;;5.92;nan;99054.44;5014478;28;20206;-70
2022/11/26 00:20:46;;;;;;;13.47;5.47;;;;;;;5.86;nan;99050.66;5014389;28;20229;-70
2022/11/26 00:23:32;;;;;;;11.23;5.20;;;;;;;5.88;nan;99053.94;5014367;28;20210;-70
2022/11/26 00:26:02;;;;;;;9.20;5.00;;;;;;;5.83;nan;99058.06;5014276;28;20521;-71
2022/11/26 00:28:34;;;;;;;9.93;4.80;;;;;;;5.79;nan;99060.16;5014288;28;20211;-70
2022/11/26 00:31:04;;;;;;;13.50;5.53;;;;;;;5.79;nan;99052.25;5014071;28;20235;-70
2022/11/26 00:33:30;;;;;;;11.43;5.07;;;;;;;5.76;nan;99057.88;5014081;28;20210;-70
2022/11/26 00:36:14;;;;;;;12.53;5.77;;;;;;;5.70;nan;99061.16;5013828;28;20563;-70
2022/11/26 00:38:40;;;;;;;10.07;4.90;;;;;;;5.77;nan;99069.22;5013851;28;20653;-71
2022/11/26 00:41:21;;;;;;;8.83;5.63;;;;;;;5.82;nan;99070.44;5014093;28;20234;-70
2022/11/26 00:43:48;;;;;;;9.47;4.50;;;;;;;5.83;nan;99073.91;5013045;28;20194;-70
2022/11/26 00:46:17;;;;;;;10.73;4.40;;;;;;;5.85;nan;99078.03;5014008;28;20206;-70
2022/11/26 00:48:44;;;;;;;12.90;5.40;;;;;;;5.95;nan;99077.84;5013996;28;20236;-70
2022/11/26 00:51:25;;;;;;;9.43;4.67;;;;;;;5.96;nan;99079.50;5013698;28;20239;-71
2022/11/26 00:53:58;;;;;;;12.97;4.77;;;;;;;5.96;nan;99079.50;5013928;28;20678;-70
2022/11/26 00:56:25;;;;;;;12.03;4.60;;;;;;;6.01;nan;99079.84;5014214;28;20207;-70
2022/11/26 00:58:51;;;;;;;10.00;4.33;;;;;;;6.05;nan;99089.91;5014113;28;20245;-70
2022/11/26 01:01:23;;;;;;;12.87;5.10;;;;;;;6.02;nan;99090.22;5013728;28;20222;-70
2022/11/26 01:03:50;;;;;;;14.57;4.90;;;;;;;6.05;nan;99094.34;5014427;28;20209;-71
2022/11/26 01:06:23;;;;;;;11.73;4.63;;;;;;;6.06;nan;99098.66;5013794;28;20214;-70
2022/11/26 01:08:50;;;;;;;11.13;5.20;;;;;;;6.09;nan;99107.06;5012607;28;20197;-70
2022/11/26 01:11:19;;;;;;;11.20;5.07;;;;;;;6.14;nan;99117.09;5013274;28;20739;-70
2022/11/26 01:13:48;;;;;;;12.77;4.60;;;;;;;6.10;nan;99118.47;5013727;28;20298;-70
2022/11/26 01:16:20;;;;;;;10.77;4.80;;;;;;;6.14;nan;99117.94;5013724;28;20210;-71
2022/11/26 01:18:48;;;;;;;11.47;5.03;;;;;;;6.15;nan;99116.16;5013464;28;20201;-70
2022/11/26 01:21:15;;;;;;;12.37;5.20;;;;;;;6.24;nan;99120.44;5013635;28;20222;-70
2022/11/26 01:23:41;;;;;;;13.80;4.83;;;;;;;6.16;nan;99121.22;5013631;28;20209;-70
2022/11/26 01:26:17;;;;;;;11.70;4.60;;;;;;;6.16;nan;99125.72;5013540;28;20213;-71
2022/11/26 01:28:44;;;;;;;12.33;5.07;;;;;;;6.10;nan;99126.38;5012434;28;20190;-70
2022/11/26 01:31:16;;;;;;;11.17;4.13;;;;;;;6.11;nan;99130.66;5013117;28;20230;-70
2022/11/26 01:33:43;;;;;;;10.10;4.30;;;;;;;6.13;nan;99140.06;5013441;28;20211;-70
2022/11/26 01:36:28;;;;;;;12.13;4.33;;;;;;;6.16;nan;99136.28;5013560;28;20206;-70
2022/11/26 01:38:57;;;;;;;10.23;4.70;;;;;;;6.14;nan;99138.22;5013298;28;20644;-70
2022/11/26 01:41:54;;;;;;;9.17;4.83;;;;;;;6.15;nan;99142.53;5013229;28;20222;-70
2022/11/26 01:44:22;;;;;;;10.57;4.03;;;;;;;6.16;nan;99149.47;5013502;28;20197;-70
2022/11/26 01:46:50;;;;;;;9.57;4.27;;;;;;;6.19;nan;99157.88;5013134;28;20694;-70
2022/11/26 01:49:22;;;;;;;10.27;4.73;;;;;;;6.22;nan;99159.38;5013121;28;20210;-70
2022/11/26 01:52:00;;;;;;;7.60;4.03;;;;;;;6.22;nan;99156.72;5012940;28;20232;-70
2022/11/26 01:54:27;;;;;;;10.70;4.87;;;;;;;6.19;nan;99165.81;5013396;28;20198;-70
2022/11/26 01:56:56;;;;;;;10.43;4.33;;;;;;;6.23;nan;99167.13;5013524;28;20203;-70
2022/11/26 01:59:45;;;;;;;8.13;4.50;;;;;;;6.23;nan;99169.75;5012991;28;20671;-70
2022/11/26 02:02:12;;;;;;;11.23;4.60;;;;;;;6.26;nan;99166.81;5013296;28;20240;-70
2022/11/26 02:04:43;;;;;;;9.10;4.57;;;;;;;6.25;nan;99170.41;5012993;28;20246;-70
2022/11/26 02:07:09;;;;;;;9.47;4.20;;;;;;;6.24;nan;99163.50;5013293;28;20195;-70
2022/11/26 02:09:36;;;;;;;9.60;4.57;;;;;;;6.27;nan;99168.44;5012924;28;20217;-70
2022/11/26 02:12:02;;;;;;;10.73;4.93;;;;;;;6.24;nan;99166.13;5012652;28;20226;-70
2022/11/26 02:14:33;;;;;;;8.93;4.20;;;;;;;6.23;nan;99168.94;5015424;28;20202;-71
2022/11/26 02:17:15;;;;;;;9.47;4.60;;;;;;;6.17;nan;99172.25;5016816;28;20253;-71
2022/11/26 02:19:55;;;;;;;14.37;4.73;;;;;;;6.16;nan;99175.88;5016651;28;20194;-70
2022/11/26 02:22:41;;;;;;;8.53;4.07;;;;;;;6.20;nan;99167.44;5016219;28;20702;-70
2022/11/26 02:25:39;;;;;;;10.57;4.83;;;;;;;6.17;nan;99180.16;5016430;28;20210;-70
2022/11/26 02:28:24;;;;;;;9.00;4.33;;;;;;;6.15;nan;99182.16;5016620;28;20186;-70
2022/11/26 02:31:13;;;;;;;9.43;4.33;;;;;;;6.15;nan;99185.59;5016224;28;20234;-71
2022/11/26 02:33:50;;;;;;;8.43;4.13;;;;;;;6.12;nan;99188.59;5016369;28;20195;-70
2022/11/26 02:36:34;;;;;;;11.57;4.47;;;;;;;6.11;nan;99194.03;5016377;28;20198;-70
2022/11/26 02:39:19;;;;;;;9.27;4.03;;;;;;;6.08;nan;99199.63;5016303;28;20194;-70
2022/11/26 02:41:48;;;;;;;10.97;4.40;;;;;;;6.04;nan;99200.94;5016583;28;20226;-70
2022/11/26 02:44:25;;;;;;;11.63;4.43;;;;;;;6.07;nan;99214.63;5016241;28;20213;-70
2022/11/26 02:46:58;;;;;;;10.03;4.43;;;;;;;6.07;nan;99216.44;5015902;28;20633;-70
2022/11/26 02:49:27;;;;;;;9.23;4.40;;;;;;;6.05;nan;99221.06;5016199;28;20191;-70
2022/11/26 02:51:58;;;;;;;7.23;3.80;;;;;;;6.04;nan;99220.25;5015584;28;20230;-70
2022/11/26 02:54:26;;;;;;;7.23;3.77;;;;;;;6.03;nan;99215.13;5016129;28;20197;-70
2022/11/26 02:56:53;;;;;;;10.37;4.20;;;;;;;6.01;nan;99228.47;5015975;28;20206;-70
2022/11/26 02:59:20;;;;;;;9.20;4.17;;;;;;;6.01;nan;99230.31;5015972;28;20206;-70
2022/11/26 03:01:54;;;;;;;8.07;4.07;;;;;;;6.02;nan;99237.22;5014761;28;20588;-70
2022/11/26 03:04:25;;;;;;;9.63;4.30;;;;;;;6.02;nan;99230.13;5016430;28;20215;-70
2022/11/26 03:06:55;;;;;;;13.03;4.77;;;;;;;6.01;nan;99236.41;5015809;28;20191;-70
2022/11/26 03:09:23;;;;;;;8.60;4.43;;;;;;;6.05;nan;99229.81;5015493;28;20721;-70
2022/11/26 03:11:49;;;;;;;7.03;4.20;;;;;;;6.04;nan;99244.00;5015516;28;20804;-70
2022/11/26 03:14:16;;;;;;;6.40;3.87;;;;;;;6.08;nan;99244.50;5015675;28;20288;-70
2022/11/26 03:16:42;;;;;;;7.80;4.10;;;;;;;6.11;nan;99246.81;5015513;28;20207;-70
2022/11/26 03:19:09;;;;;;;10.60;4.57;;;;;;;6.11;nan;99241.53;5016241;28;20206;-70
2022/11/26 03:21:35;;;;;;;10.33;5.37;;;;;;;6.13;nan;99248.31;5015901;28;20229;-70
2022/11/26 03:24:01;;;;;;;8.57;4.37;;;;;;;6.14;nan;99255.25;5015461;28;20202;-70
2022/11/26 03:26:28;;;;;;;8.77;4.30;;;;;;;6.17;nan;99252.28;5014396;28;20237;-70
2022/11/26 03:28:54;;;;;;;11.70;3.90;;;;;;;6.16;nan;99260.38;5015479;28;20244;-70
2022/11/26 03:31:21;;;;;;;9.90;4.33;;;;;;;6.15;nan;99258.72;5015131;28;20237;-71
2022/11/26 03:33:47;;;;;;;11.10;4.77;;;;;;;6.13;nan;99258.88;5015286;28;20236;-70
2022/11/26 03:36:14;;;;;;;9.30;4.93;;;;;;;6.15;nan;99259.53;5015027;28;20209;-70
2022/11/26 03:38:40;;;;;;;8.80;5.00;;;;;;;6.12;nan;99259.03;5015070;28;20217;-70
2022/11/26 03:41:06;;;;;;;9.67;5.17;;;;;;;6.06;nan;99259.69;5015003;28;20264;-70
2022/11/26 03:43:33;;;;;;;9.63;5.30;;;;;;;6.08;nan;99255.06;5014755;28;20579;-70
2022/11/26 03:45:59;;;;;;;12.77;5.10;;;;;;;6.01;nan;99261.97;5015668;28;20548;-70
2022/11/26 03:48:25;;;;;;;10.90;5.10;;;;;;;5.95;nan;99274.00;5014975;28;20207;-70
2022/11/26 03:50:52;;;;;;;7.93;5.07;;;;;;;5.98;nan;99275.50;5014621;28;20231;-70
2022/11/26 03:53:18;;;;;;;12.03;4.83;;;;;;;5.98;nan;99272.84;5014976;28;20213;-70
2022/11/26 03:55:45;;;;;;;9.87;5.10;;;;;;;5.96;nan;99275.66;5014845;28;20207;-71
2022/11/26 03:58:11;;;;;;;8.20;4.33;;;;;;;5.97;nan;99264.09;5014583;28;20780;-70
2022/11/26 04:00:37;;;;;;;9.93;4.83;;;;;;;5.91;nan;99266.56;5014700;28;20235;-70
2022/11/26 04:03:04;;;;;;;9.20;4.53;;;;;;;5.90;nan;99275.47;5014549;28;20214;-70
2022/11/26 04:05:30;;;;;;;8.87;4.73;;;;;;;5.94;nan;99274.16;5014545;28;20217;-70
2022/11/26 04:07:56;;;;;;;8.47;4.33;;;;;;;5.82;nan;99270.97;5014877;28;20210;-70
2022/11/26 04:10:23;;;;;;;11.97;5.33;;;;;;;5.83;nan;99269.19;5014370;28;20572;-70
2022/11/26 04:12:49;;;;;;;7.37;4.93;;;;;;;5.82;nan;99270.16;5014372;28;20333;-70
2022/11/26 04:15:16;;;;;;;12.30;4.70;;;;;;;5.82;nan;99270.16;5014501;28;20207;-70
2022/11/26 04:17:42;;;;;;;12.57;4.67;;;;;;;5.82;nan;99278.91;5014463;28;20203;-70
2022/11/26 04:20:09;;;;;;;12.57;4.77;;;;;;;5.83;nan;99279.75;5014383;28;20211;-70
2022/11/26 04:22:35;;;;;;;10.90;4.00;;;;;;;5.91;nan;99279.75;5014416;28;20203;-70
2022/11/26 04:25:01;;;;;;;12.23;4.80;;;;;;;5.96;nan;99280.94;5014243;28;20301;-70
2022/11/26 04:27:28;;;;;;;9.73;4.50;;;;;;;5.98;nan;99276.31;5013820;28;20210;-70
2022/11/26 04:29:54;;;;;;;8.33;4.33;;;;;;;6.01;nan;99269.91;5014242;28;20597;-70
2022/11/26 04:32:20;;;;;;;12.93;3.40;;;;;;;6.12;nan;99275.72;5013985;28;20248;-70
2022/11/26 04:34:47;;;;;;;12.90;4.10;;;;;;;6.31;nan;99274.56;5014099;28;20213;-70
2022/11/26 04:37:13;;;;;;;12.13;3.73;;;;;;;6.27;nan;99271.44;5013569;28;20217;-70
2022/11/26 04:39:39;;;;;;;10.10;3.23;;;;;;;6.27;nan;99273.25;5014051;28;20619;-70
2022/11/26 04:42:06;;;;;;;12.10;3.90;;;;;;;6.30;nan;99272.94;5014113;28;20226;-70
2022/11/26 04:44:32;;;;;;;8.10;2.83;;;;;;;6.36;nan;99272.28;5013657;28;20674;-70
2022/11/26 04:46:59;;;;;;;12.83;3.93;;;;;;;6.36;nan;99267.81;5013475;28;20234;-70
2022/11/26 04:49:25;;;;;;;8.83;3.33;;;;;;;6.35;nan;99275.91;5013625;28;20217;-70
2022/11/26 04:51:51;;;;;;;11.10;4.00;;;;;;;6.39;nan;99278.06;5013490;28;20233;-70
2022/11/26 04:54:18;;;;;;;12.37;3.87;;;;;;;6.34;nan;99275.06;5013658;28;20689;-70
2022/11/26 04:56:44;;;;;;;10.03;3.77;;;;;;;6.32;nan;99284.97;5013526;28;20670;-70
2022/11/26 04:59:10;;;;;;;11.10;3.80;;;;;;;6.25;nan;99291.09;5013526;28;20681;-70
2022/11/26 05:01:37;;;;;;;9.80;4.13;;;;;;;6.16;nan;99292.03;5013765;28;20218;-70
2022/11/26 05:04:03;;;;;;;9.23;3.40;;;;;;;6.08;nan;99286.72;5013730;28;20210;-70
2022/11/26 05:06:30;;;;;;;9.20;3.33;;;;;;;6.00;nan;99289.34;5013736;28;20211;-70
2022/11/26 05:08:56;;;;;;;9.33;3.17;;;;;;;5.89;nan;99297.56;5013221;28;20211;-70
2022/11/26 05:11:23;;;;;;;9.80;3.60;;;;;;;5.74;nan;99294.66;5013336;28;20240;-70
2022/11/26 05:13:49;;;;;;;9.83;3.10;;;;;;;5.62;nan;99295.09;5013406;28;20221;-70
2022/11/26 05:16:15;;;;;;;11.60;3.20;;;;;;;5.62;nan;99295.94;5013700;28;20220;-70
2022/11/26 05:18:42;;;;;;;7.10;3.57;;;;;;;5.57;nan;99300.84;5013395;28;20209;-70
2022/11/26 05:21:08;;;;;;;12.10;4.10;;;;;;;5.49;nan;99302.63;5013276;28;20583;-70
2022/11/26 05:23:35;;;;;;;8.20;3.60;;;;;;;5.44;nan;99297.00;5013642;28;20214;-70
2022/11/26 05:26:01;;;;;;;11.17;4.10;;;;;;;5.35;nan;99301.41;5013617;28;20213;-70
2022/11/26 05:28:28;;;;;;;9.20;4.03;;;;;;;5.33;nan;99299.91;5013642;28;20213;-70
2022/11/26 05:30:59;;;;;;;8.60;4.00;;;;;;;5.36;nan;99299.56;5013464;28;20305;-71
2022/11/26 05:33:26;;;;;;;10.10;3.83;;;;;;;5.28;nan;99304.78;5013607;28;20210;-70
2022/11/26 05:35:53;;;;;;;9.80;3.90;;;;;;;5.19;nan;99311.84;5013529;28;20206;-70
2022/11/26 05:38:19;;;;;;;6.63;3.50;;;;;;;5.19;nan;99308.34;5013318;28;20210;-70
2022/11/26 05:40:45;;;;;;;6.10;4.30;;;;;;;5.19;nan;99318.91;5013236;28;20227;-70
2022/11/26 05:43:12;;;;;;;13.10;4.80;;;;;;;5.13;nan;99307.19;5013271;28;20210;-70
2022/11/26 05:45:39;;;;;;;16.80;5.03;;;;;;;5.15;nan;99315.75;5013447;28;20212;-70
2022/11/26 05:48:05;;;;;;;10.93;4.23;;;;;;;5.16;nan;99327.13;5013271;28;20285;-70
2022/11/26 05:50:33;;;;;;;10.07;4.50;;;;;;;5.08;nan;99324.44;5016970;28;20222;-70
2022/11/26 05:53:00;;;;;;;7.80;5.00;;;;;;;5.06;nan;99331.69;5017123;28;20221;-70
2022/11/26 05:55:26;;;;;;;10.20;4.70;;;;;;;4.94;nan;99340.78;5016747;28;20216;-70
2022/11/26 05:57:53;;;;;;;6.57;4.83;;;;;;;4.96;nan;99347.56;5017035;28;20206;-70
2022/11/26 06:00:19;;;;;;;11.33;4.93;;;;;;;4.96;nan;99337.03;5016956;28;20222;-70
2022/11/26 06:02:46;;;;;;;10.77;5.00;;;;;;;4.92;nan;99333.03;5016828;28;20202;-70
2022/11/26 06:05:12;;;;;;;9.67;5.20;;;;;;;4.87;nan;99339.75;5016909;28;20206;-70
2022/11/26 06:07:39;;;;;;;7.67;4.47;;;;;;;4.86;nan;99351.25;5016762;28;20216;-70
2022/11/26 06:10:06;;;;;;;10.30;5.60;;;;;;;4.83;nan;99351.56;5016813;28;20309;-70
2022/11/26 06:12:32;;;;;;;11.77;5.63;;;;;;;4.79;nan;99348.41;5016933;28;20230;-70
2022/11/26 06:14:58;;;;;;;11.63;5.73;;;;;;;4.80;nan;99352.69;5016782;28;20210;-70
2022/11/26 06:17:25;;;;;;;10.90;5.40;;;;;;;4.81;nan;99353.53;5016609;28;20206;-70
2022/11/26 06:19:51;;;;;;;9.07;6.00;;;;;;;4.85;nan;99353.09;5016265;28;20673;-70
2022/11/26 06:22:18;;;;;;;10.07;5.23;;;;;;;4.75;nan;99351.50;5016213;28;20709;-70
2022/11/26 06:24:44;;;;;;;12.67;6.20;;;;;;;4.74;nan;99352.50;5016493;28;20203;-70
2022/11/26 06:27:10;;;;;;;9.13;5.73;;;;;;;4.69;nan;99357.34;5016503;28;20202;-70
2022/11/26 06:29:37;;;;;;;11.03;5.77;;;;;;;4.73;nan;99356.91;5016454;28;20220;-70
2022/11/26 06:32:03;;;;;;;14.63;6.57;;;;;;;4.73;nan;99353.44;5015774;28;20253;-70
2022/11/26 06:34:30;;;;;;;12.80;7.03;;;;;;;4.64;nan;99356.97;5016183;28;20207;-70
2022/11/26 06:36:56;;;;;;;10.37;5.83;;;;;;;4.67;nan;99356.69;5015811;28;20206;-70
2022/11/26 06:39:22;;;;;;;13.63;5.73;;;;;;;4.63;nan;99357.97;5015774;28;20246;-70
2022/11/26 06:41:49;;;;;;;13.77;5.90;;;;;;;4.55;nan;99366.63;5015913;28;20230;-70
2022/11/26 06:44:15;;;;;;;11.70;5.23;;;;;;;4.53;nan;99363.28;5015866;28;20207;-70
2022/11/26 06:46:41;;;;;;;11.70;5.63;;;;;;;4.47;nan;99387.59;5015654;28;20211;-70
2022/11/26 06:49:08;;;;;;;10.17;5.33;;;;;;;4.45;nan;99383.44;5015814;28;20214;-70
2022/11/26 06:51:34;;;;;;;11.87;5.40;;;;;;;4.42;nan;99395.13;5015358;28;20686;-70
2022/11/26 06:54:01;;;;;;;8.03;5.23;;;;;;;4.38;nan;99392.94;5015774;28;20680;-70
2022/11/26 06:56:28;;;;;;;8.00;4.90;;;;;;;4.33;nan;99388.09;5015936;28;20209;-70
2022/11/26 06:58:55;;;;;;;8.57;4.80;;;;;;;4.35;nan;99394.06;5015847;28;20217;-70
2022/11/26 07:01:24;;;;;;;9.40;5.13;;;;;;;4.35;nan;99395.84;5015688;28;20288;-70
2022/11/26 07:03:51;;;;;;;9.80;5.10;;;;;;;4.35;nan;99406.38;5015769;28;20248;-70
2022/11/26 07:06:20;;;;;;;9.03;4.70;;;;;;;4.38;nan;99409.53;5015490;28;20210;-70
2022/11/26 07:08:47;;;;;;;6.70;5.07;;;;;;;4.33;nan;99408.31;5015726;28;20202;-70
2022/11/26 07:11:14;;;;;;;12.80;5.53;;;;;;;4.42;nan;99423.22;5015308;28;20709;-70
2022/11/26 07:13:40;;;;;;;8.87;4.70;;;;;;;4.33;nan;99421.47;5015466;28;20681;-70
2022/11/26 07:16:07;;;;;;;9.50;5.03;;;;;;;4.29;nan;99423.59;5016220;28;20211;-70
2022/11/26 07:18:34;;;;;;;10.63;4.80;;;;;;;4.37;nan;99428.13;5015525;28;20211;-70
2022/11/26 07:21:06;;;;;;;7.67;4.83;;;;;;;4.39;nan;99431.44;5015418;28;20227;-70
2022/11/26 07:23:32;;;;;;;12.27;5.83;;;;;;;4.40;nan;99433.09;5015389;28;20205;-70
2022/11/26 07:26:00;;;;;;;9.53;5.63;;;;;;;4.46;nan;99437.75;5015278;28;20210;-70
2022/11/26 07:28:26;;;;;;;11.00;5.20;;;;;;;4.48;nan;99443.72;5015258;28;20206;-70
2022/11/26 07:30:53;;;;;;;15.53;5.17;;;;;;;4.58;nan;99447.13;5016063;28;20231;-70
2022/11/26 07:33:19;;;;;;;11.17;4.37;;;;;;;4.60;nan;99451.28;5015086;28;20237;-70
2022/11/26 07:35:46;;;;;;;12.47;5.27;;;;;;;4.71;nan;99458.97;5015142;28;20210;-70
2022/11/26 07:38:12;;;;;;;10.77;5.23;;;;;;;4.77;nan;99462.81;5015149;28;20214;-70
2022/11/26 07:40:38;;;;;;;8.70;4.90;;;;;;;4.85;nan;99465.53;5014700;28;20792;-70
2022/11/26 07:43:05;;;;;;;10.47;4.53;;;;;;;5.00;nan;99469.31;5014911;28;20211;-70
2022/11/26 07:45:31;;;;;;;16.83;5.60;;;;;;;5.09;nan;99471.91;5014969;28;20298;-70
2022/11/26 07:47:58;;;;;;;12.13;5.30;;;;;;;5.24;nan;99477.47;5014839;28;20210;-70
2022/11/26 07:50:24;;;;;;;12.27;4.80;;;;;;;5.29;nan;99470.75;5014705;28;20215;-70
2022/11/26 07:52:52;;;;;;;7.40;4.40;;;;;;;5.40;nan;99477.59;5014578;28;20211;-70
2022/11/26 07:55:18;;;;;;;10.00;5.17;;;;;;;5.48;nan;99477.69;5014817;28;20268;-70
2022/11/26 07:57:45;;;;;;;9.17;4.97;;;;;;;5.56;nan;99475.94;5014750;28;20217;-70
2022/11/26 08:00:12;;;;;;;13.37;5.37;;;;;;;5.61;nan;99480.75;5014551;28;20217;-70
2022/11/26 08:02:38;;;;;;;12.60;6.70;;;;;;;5.69;nan;99486.06;5014526;28;20213;-70
2022/11/26 08:05:05;;;;;;;13.43;6.03;;;;;;;5.80;nan;99485.84;5014251;28;20206;-70
2022/11/26 08:07:31;;;;;;;12.20;5.63;;;;;;;5.66;nan;99487.22;5014200;28;20207;-70
2022/11/26 08:09:58;;;;;;;11.30;5.10;;;;;;;5.70;nan;99488.56;5014455;28;20282;-71
2022/11/26 08:12:24;;;;;;;12.13;5.17;;;;;;;5.53;nan;99488.59;5013751;28;20237;-70
2022/11/26 08:14:50;;;;;;;9.20;4.70;;;;;;;5.64;nan;99497.09;5014313;28;20295;-70
2022/11/26 08:17:17;;;;;;;14.17;5.40;;;;;;;5.62;nan;99492.97;5014346;28;20213;-70
2022/11/26 08:19:43;;;;;;;9.47;4.93;;;;;;;5.72;nan;99499.81;5013759;28;20642;-70
2022/11/26 08:22:09;;;;;;;11.27;5.20;;;;;;;5.79;nan;99492.13;5013989;28;20236;-70
2022/11/26 08:24:36;;;;;;;10.07;5.27;;;;;;;5.85;nan;99483.59;5014046;28;20209;-70
2022/11/26 08:27:02;;;;;;;10.07;5.43;;;;;;;5.86;nan;99496.66;5013671;28;20599;-70
2022/11/26 08:29:29;;;;;;;10.53;4.90;;;;;;;5.95;nan;99492.25;5013857;28;20221;-70
2022/11/26 08:31:55;;;;;;;13.60;6.07;;;;;;;6.00;nan;99495.25;5013705;28;20234;-70
2022/11/26 08:34:21;;;;;;;10.20;5.37;;;;;;;5.99;nan;99496.22;5013874;28;20641;-70
2022/11/26 08:36:48;;;;;;;16.10;6.97;;;;;;;6.03;nan;99497.59;5014145;28;20213;-70
2022/11/26 08:39:17;;;;;;;14.23;6.20;;;;;;;6.06;nan;99507.84;5013977;28;20682;-70
2022/11/26 08:41:43;;;;;;;13.40;5.80;;;;;;;6.09;nan;99504.88;5013969;28;20246;-70
2022/11/26 08:44:10;;;;;;;11.83;5.43;;;;;;;6.12;nan;99504.56;5013749;28;20206;-70
2022/11/26 08:46:38;;;;;;;8.63;6.10;;;;;;;6.15;nan;99509.56;5013424;28;20638;-70
2022/11/26 08:49:06;;;;;;;12.27;6.77;;;;;;;6.18;nan;99511.84;5013840;28;20210;-70
2022/11/26 08:51:33;;;;;;;14.30;7.10;;;;;;;6.21;nan;99512.41;5013240;28;20241;-70
2022/11/26 08:53:59;;;;;;;12.40;7.00;;;;;;;6.27;nan;99518.84;5013816;28;20309;-70
2022/11/26 08:56:26;;;;;;;9.97;6.00;;;;;;;6.25;nan;99515.56;5013391;28;20217;-70
2022/11/26 08:58:52;;;;;;;13.77;6.67;;;;;;;6.23;nan;99517.50;5013515;28;20206;-70
2022/11/26 09:01:25;;;;;;;11.77;6.37;;;;;;;6.20;nan;99520.47;5013559;28;20226;-70
2022/11/26 09:03:54;;;;;;;11.30;6.50;;;;;;;6.21;nan;99522.13;5013483;28;20538;-70
2022/11/26 09:06:22;;;;;;;15.80;6.93;;;;;;;6.29;nan;99519.53;5013262;28;20674;-70
2022/11/26 09:11:35;;;;;;;11.37;6.40;;;;;;;6.65;nan;99521.03;5013350;28;20290;-70
2022/11/26 09:14:02;;;;;;;11.43;5.90;;;;;;;6.70;nan;99516.09;5013300;28;20222;-70
2022/11/26 09:16:29;;;;;;;11.23;6.77;;;;;;;6.70;nan;99518.75;5013566;28;20280;-70
2022/11/26 09:18:56;;;;;;;11.37;6.23;;;;;;;6.67;nan;99503.19;5013698;28;20228;-71
2022/11/26 09:21:23;;;;;;;14.47;6.67;;;;;;;6.69;nan;99511.81;5013458;28;20249;-70
2022/11/26 09:23:49;;;;;;;12.63;6.83;;;;;;;6.72;nan;99507.03;5015294;28;20206;-70
2022/11/26 09:26:15;;;;;;;13.33;7.20;;;;;;;6.81;nan;99506.06;5017188;28;20208;-70
2022/11/26 09:28:42;;;;;;;11.07;7.67;;;;;;;6.95;nan;99501.97;5017288;28;20202;-70
2022/11/26 09:31:08;;;;;;;10.30;7.57;;;;;;;6.91;nan;99512.06;5016974;28;20231;-70
2022/11/26 09:33:34;;;;;;;11.80;8.13;;;;;;;6.89;nan;99513.19;5017113;28;20572;-70
2022/11/26 09:36:13;;;;;;;13.47;7.60;;;;;;;6.90;nan;99520.13;5017405;28;20202;-70
2022/11/26 09:38:40;;;;;;;10.97;8.03;;;;;;;6.83;nan;99519.13;5017358;28;20289;-70
2022/11/26 09:41:25;;;;;;;10.67;8.47;;;;;;;6.90;nan;99520.13;5017248;28;20222;-70
2022/11/26 09:44:19;;;;;;;14.70;7.87;;;;;;;6.99;nan;99520.00;5017136;28;20187;-70
2022/11/26 09:47:04;;;;;;;11.57;7.20;;;;;;;7.03;nan;99524.00;5016020;28;20191;-71
2022/11/26 09:49:36;;;;;;;12.90;6.63;;;;;;;7.02;nan;99524.16;5017627;28;20191;-71
2022/11/26 09:52:05;;;;;;;13.80;7.03;;;;;;;7.03;nan;99528.44;5016770;28;20234;-71
2022/11/26 09:54:32;;;;;;;10.37;6.47;;;;;;;7.10;nan;99526.81;5017008;28;20202;-71
2022/11/26 09:57:26;;;;;;;16.73;6.30;;;;;;;7.23;nan;99527.16;5016992;28;20203;-71
2022/11/26 09:59:55;;;;;;;11.57;5.70;;;;;;;7.29;nan;99523.88;5017156;28;20196;-71
2022/11/26 10:02:23;;;;;;;9.10;6.50;;;;;;;7.38;nan;99520.28;5016460;28;20222;-71
2022/11/26 10:04:50;;;;;;;9.80;6.07;;;;;;;7.40;nan;99518.28;5016707;28;20214;-71
2022/11/26 10:07:38;;;;;;;8.60;5.37;;;;;;;7.51;nan;99512.69;5016019;28;20688;-70
2022/11/26 10:10:16;;;;;;;10.33;5.70;;;;;;;7.58;nan;99517.16;5016087;28;20240;-71
2022/11/26 10:12:57;;;;;;;9.30;5.63;;;;;;;7.68;nan;99516.97;5015386;28;20214;-71
2022/11/26 10:15:50;;;;;;;9.60;6.10;;;;;;;7.81;nan;99504.06;5015168;28;20191;-71
2022/11/26 10:18:31;;;;;;;12.40;5.73;;;;;;;7.83;nan;99504.75;5016580;28;20195;-71
2022/11/26 10:21:14;;;;;;;12.80;6.20;;;;;;;7.86;nan;99514.97;5016269;28;20318;-71
2022/11/26 10:23:57;;;;;;;7.57;5.13;;;;;;;7.95;nan;99519.28;5016556;28;20277;-71
2022/11/26 10:26:29;;;;;;;7.70;4.63;;;;;;;7.87;nan;99519.31;5016751;28;20194;-71
2022/11/26 10:29:15;;;;;;;8.70;5.43;;;;;;;7.89;nan;99514.66;5016484;28;20538;-71
2022/11/26 10:31:46;;;;;;;7.80;4.70;;;;;;;7.82;nan;99519.78;5016204;28;20313;-71
2022/11/26 10:34:18;;;;;;;7.60;4.60;;;;;;;8.19;nan;99516.63;5015271;28;20221;-71
2022/11/26 10:36:47;;;;;;;10.40;4.27;;;;;;;8.34;nan;99518.44;5016026;28;20197;-71
2022/11/26 10:39:16;;;;;;;8.53;4.33;;;;;;;8.12;nan;99518.28;5015745;28;20575;-71
2022/11/26 10:41:43;;;;;;;8.03;3.93;;;;;;;8.00;nan;99517.78;5015657;28;20226;-71
2022/11/26 10:44:32;;;;;;;10.37;4.17;;;;;;;8.16;nan;99516.94;5016287;28;20207;-71
2022/11/26 10:47:00;;;;;;;13.17;4.43;;;;;;;8.26;nan;99522.91;5015609;28;20493;-71
2022/11/26 10:49:29;;;;;;;9.83;3.73;;;;;;;8.72;nan;99519.47;5015895;28;20210;-71
2022/11/26 10:52:02;;;;;;;10.47;3.60;;;;;;;8.30;nan;99514.47;5015772;28;20574;-71
2022/11/26 10:54:33;;;;;;;10.83;3.83;;;;;;;8.29;nan;99507.50;5014344;28;20570;-71
2022/11/26 10:57:17;;;;;;;6.67;3.60;;;;;;;8.32;nan;99516.97;5016203;28;20202;-71
2022/11/26 10:59:46;;;;;;;8.83;4.40;;;;;;;8.25;nan;99513.31;5015704;28;20228;-71
2022/11/26 11:02:37;;;;;;;12.27;4.83;;;;;;;8.22;nan;99508.34;5015401;28;20672;-71
2022/11/26 11:05:08;;;;;;;11.13;4.50;;;;;;;8.18;nan;99497.25;5015690;28;20202;-71
2022/11/26 11:07:34;;;;;;;9.47;4.50;;;;;;;8.12;nan;99495.28;5016117;28;20210;-71
2022/11/26 11:10:09;;;;;;;11.43;5.60;;;;;;;8.14;nan;99493.25;5015655;28;20206;-71
2022/11/26 11:12:38;;;;;;;11.17;6.80;;;;;;;8.17;nan;99489.44;5015556;28;20305;-71
2022/11/26 11:15:23;;;;;;;12.90;6.30;;;;;;;8.22;nan;99500.41;5015390;28;20203;-71
2022/11/26 11:17:57;;;;;;;17.37;7.60;;;;;;;8.26;nan;99496.41;5015612;28;20207;-71
2022/11/26 11:20:55;;;;;;;11.37;8.07;;;;;;;8.20;nan;99489.97;5015291;28;20206;-71
2022/11/26 11:23:34;;;;;;;12.60;4.83;;;;;;;8.29;nan;99494.25;5013024;28;20725;-71
2022/11/26 11:26:19;;;;;;;12.43;5.07;;;;;;;8.26;nan;99491.13;5014894;28;20654;-71
2022/11/26 11:28:49;;;;;;;7.13;4.20;;;;;;;8.41;nan;99495.56;5015121;28;20197;-71
2022/11/26 11:31:24;;;;;;;8.77;4.07;;;;;;;8.30;nan;99493.28;5015088;28;20233;-71
2022/11/26 11:34:10;;;;;;;10.57;3.97;;;;;;;8.31;nan;99497.56;5015129;28;20222;-71
2022/11/26 11:36:37;;;;;;;10.37;3.70;;;;;;;8.59;nan;99503.28;5014960;28;20191;-71
2022/11/26 11:39:04;;;;;;;9.57;3.53;;;;;;;8.63;nan;99492.16;5014916;28;20207;-71
2022/11/26 11:41:46;;;;;;;13.63;3.77;;;;;;;8.50;nan;99486.56;5014337;28;20245;-71
2022/11/26 11:44:18;;;;;;;9.23;4.07;;;;;;;8.38;nan;99484.47;5015415;28;20187;-71
2022/11/26 11:47:13;;;;;;;8.77;3.50;;;;;;;8.37;nan;99488.94;5013640;28;20209;-71
2022/11/26 11:49:58;;;;;;;7.50;3.70;;;;;;;8.30;nan;99487.13;5014165;28;20202;-71
2022/11/26 11:53:02;;;;;;;11.80;3.23;;;;;;;8.65;nan;99481.41;5014171;28;20230;-71
2022/11/26 11:55:32;;;;;;;8.67;3.43;;;;;;;8.61;nan;99485.38;5008145;28;20202;-71
2022/11/26 11:58:08;;;;;;;14.50;4.17;;;;;;;8.39;nan;99483.47;5014567;28;20309;-71
2022/11/26 12:00:52;;;;;;;9.30;3.60;;;;;;;8.28;nan;99478.53;5014091;28;20226;-71
2022/11/26 12:03:43;;;;;;;8.40;3.70;;;;;;;8.32;nan;99479.88;5014641;28;20201;-71
2022/11/26 12:06:19;;;;;;;11.70;3.67;;;;;;;8.43;nan;99482.13;5014512;28;20203;-71
2022/11/26 12:09:15;;;;;;;6.63;3.03;;;;;;;8.51;nan;99479.47;5013080;28;20234;-71
2022/11/26 12:11:59;;;;;;;8.87;3.40;;;;;;;8.70;nan;99471.94;5012830;28;20223;-71